Time;durP1;ratioP1;P1;durP2;ratioP2;P2;SDS_P1;SDS_P2;PMS_P1;PMS_P2;Temp;Humidity;BMP_temperature;BMP_pressure;BME280_temperature;BME280_humidity;BME280_pressure;Samples;Min_cycle;Max_cycle;Signal;HPM_P1;HPM_P2
2023/05/15 00:01:25;;;;;;;5.90;3.38;;;;;;;11.62;100.00;98209.50;5067539;28;20094;-92
2023/05/15 00:03:51;;;;;;;5.45;3.50;;;;;;;11.58;100.00;98202.59;5063178;28;20432;-93
2023/05/15 00:06:18;;;;;;;7.45;3.45;;;;;;;11.61;100.00;98190.97;5061006;28;20515;-94
2023/05/15 00:08:44;;;;;;;5.97;3.60;;;;;;;11.77;100.00;98217.81;5063889;28;20128;-93
2023/05/15 00:11:10;;;;;;;6.70;3.85;;;;;;;11.76;100.00;98218.78;5068573;28;20064;-95
2023/05/15 00:13:37;;;;;;;6.38;3.83;;;;;;;11.74;100.00;98204.66;5064680;28;20143;-94
2023/05/15 00:16:03;;;;;;;6.25;3.85;;;;;;;11.73;100.00;98203.75;5063565;28;20135;-94
2023/05/15 00:18:29;;;;;;;7.35;3.80;;;;;;;11.72;100.00;98207.34;5062292;28;20037;-93
2023/05/15 00:20:55;;;;;;;6.63;4.00;;;;;;;11.79;100.00;98211.50;5066716;28;20058;-95
2023/05/15 00:23:22;;;;;;;5.07;3.67;;;;;;;11.66;100.00;98189.81;5064506;28;20123;-94
2023/05/15 00:25:48;;;;;;;5.22;3.60;;;;;;;11.88;100.00;98216.50;5067604;28;20048;-94
2023/05/15 00:28:14;;;;;;;6.78;3.70;;;;;;;11.65;100.00;98185.44;5066913;28;20040;-94
2023/05/15 00:30:40;;;;;;;6.78;3.95;;;;;;;11.61;100.00;98174.97;5066337;28;20053;-92
2023/05/15 00:33:06;;;;;;;7.65;3.90;;;;;;;11.77;100.00;98201.84;5064845;28;20037;-95
2023/05/15 00:35:32;;;;;;;6.57;3.60;;;;;;;11.71;100.00;98198.50;5068369;28;20093;-93
2023/05/15 00:37:58;;;;;;;9.07;4.05;;;;;;;11.67;100.00;98196.03;5065406;28;20033;-94
2023/05/15 00:40:26;;;;;;;7.68;4.50;;;;;;;11.66;100.00;98200.47;5064500;28;20494;-94
2023/05/15 00:42:53;;;;;;;10.10;4.47;;;;;;;11.66;100.00;98200.47;5063451;28;20100;-94
2023/05/15 00:45:20;;;;;;;7.63;4.88;;;;;;;11.76;100.00;98224.97;5058601;28;20309;-94
2023/05/15 00:47:48;;;;;;;7.25;4.30;;;;;;;11.64;100.00;98202.31;5067226;28;20047;-93
2023/05/15 00:50:14;;;;;;;6.43;4.20;;;;;;;11.56;100.00;98172.50;5064716;28;20037;-93
2023/05/15 00:52:42;;;;;;;6.32;4.40;;;;;;;11.65;100.00;98188.09;5064855;28;20127;-94
2023/05/15 00:55:08;;;;;;;9.90;5.53;;;;;;;11.50;100.00;98165.63;5064906;28;20056;-92
2023/05/15 00:57:37;;;;;;;9.70;4.88;;;;;;;11.51;100.00;98174.47;5057837;28;20041;-93
2023/05/15 01:00:09;;;;;;;7.65;4.60;;;;;;;11.50;100.00;98176.28;5064362;28;20052;-93
2023/05/15 01:02:35;;;;;;;8.68;4.30;;;;;;;11.62;100.00;98192.69;5058115;28;20044;-93
2023/05/15 01:05:01;;;;;;;7.65;4.65;;;;;;;11.41;100.00;98167.81;5068324;28;20401;-92
2023/05/15 01:07:29;;;;;;;7.68;4.10;;;;;;;11.51;100.00;98187.78;5062961;28;20051;-94
2023/05/15 01:09:56;;;;;;;7.03;4.30;;;;;;;11.52;100.00;98187.72;5061737;28;20127;-93
2023/05/15 01:12:24;;;;;;;6.97;4.60;;;;;;;11.66;100.00;98212.94;5067322;28;20436;-91
2023/05/15 01:14:53;;;;;;;5.40;4.03;;;;;;;11.59;100.00;98193.66;5068569;28;20036;-93
2023/05/15 01:17:19;;;;;;;7.82;3.92;;;;;;;11.67;100.00;98204.88;5065922;28;20067;-95
2023/05/15 01:19:48;;;;;;;5.95;3.90;;;;;;;11.62;100.00;98182.03;5068551;28;20064;-93
2023/05/15 01:22:38;;;;;;;8.13;4.43;;;;;;;11.50;100.00;98186.06;5069463;28;20036;-94
2023/05/15 01:25:43;;;;;;;6.78;3.58;;;;;;;11.54;100.00;98190.34;5047550;28;20040;-93
2023/05/15 01:28:14;;;;;;;7.22;4.00;;;;;;;11.59;100.00;98204.31;5063540;28;20130;-93
2023/05/15 01:30:43;;;;;;;6.75;3.72;;;;;;;11.58;100.00;98196.38;5062068;28;20044;-92
2023/05/15 01:33:20;;;;;;;6.93;3.53;;;;;;;11.59;100.00;98180.34;5069350;28;20135;-94
2023/05/15 01:35:51;;;;;;;6.82;3.78;;;;;;;11.74;100.00;98202.84;5061539;28;20512;-92
2023/05/15 01:38:26;;;;;;;8.00;3.70;;;;;;;11.47;100.00;98138.25;5062704;28;20322;-93
2023/05/15 01:41:00;;;;;;;6.90;3.50;;;;;;;11.78;100.00;98192.94;5063388;28;20428;-93
2023/05/15 01:43:31;;;;;;;7.97;3.88;;;;;;;11.58;100.00;98159.09;5062830;28;20468;-92
2023/05/15 01:45:58;;;;;;;5.80;3.72;;;;;;;11.63;100.00;98166.00;5036781;28;20045;-93
2023/05/15 01:48:26;;;;;;;5.50;3.45;;;;;;;11.71;100.00;98171.88;5059118;28;20041;-93
2023/05/15 01:50:57;;;;;;;6.80;3.73;;;;;;;11.74;100.00;98189.53;5040963;28;20037;-93
2023/05/15 01:53:24;;;;;;;5.28;3.65;;;;;;;11.57;100.00;98165.38;5041660;28;20494;-92
2023/05/15 01:55:51;;;;;;;6.28;3.67;;;;;;;11.71;100.00;98171.88;5035878;28;20034;-93
2023/05/15 01:58:18;;;;;;;8.85;3.78;;;;;;;11.72;100.00;98184.25;5039709;28;20041;-94
2023/05/15 02:00:47;;;;;;;7.68;3.78;;;;;;;11.70;100.00;98177.25;5037926;28;20049;-92
2023/05/15 02:03:14;;;;;;;5.40;3.47;;;;;;;11.60;100.00;98168.78;5038609;28;20574;-93
2023/05/15 02:05:41;;;;;;;8.40;3.70;;;;;;;11.65;100.00;98172.13;5033683;28;20048;-92
2023/05/15 02:08:09;;;;;;;7.55;4.20;;;;;;;11.58;100.00;98168.00;5033607;28;20450;-92
2023/05/15 02:10:36;;;;;;;8.27;4.00;;;;;;;11.66;100.00;98181.84;5041476;28;20045;-92
2023/05/15 02:13:01;;;;;;;9.88;4.50;;;;;;;11.56;100.00;98164.53;5039275;28;20036;-93
2023/05/15 02:15:28;;;;;;;10.57;4.43;;;;;;;11.62;100.00;98172.22;5038171;28;20042;-92
2023/05/15 02:17:56;;;;;;;6.13;3.80;;;;;;;11.49;100.00;98147.94;5038254;28;20394;-93
2023/05/15 02:20:22;;;;;;;5.35;3.63;;;;;;;11.54;100.00;98166.38;5037192;28;20080;-93
2023/05/15 02:22:48;;;;;;;13.23;4.20;;;;;;;11.46;100.00;98152.50;5034606;28;20137;-92
2023/05/15 02:25:13;;;;;;;8.23;3.95;;;;;;;11.38;100.00;98130.63;5036812;28;20467;-91
2023/05/15 02:27:47;;;;;;;8.63;3.97;;;;;;;11.63;100.00;98163.31;5045010;28;20041;-93
2023/05/15 02:30:24;;;;;;;9.90;4.35;;;;;;;11.62;100.00;98158.91;5044630;28;20548;-93
2023/05/15 02:33:03;;;;;;;6.65;3.97;;;;;;;11.49;100.00;98133.72;5040289;28;20128;-93
2023/05/15 02:35:32;;;;;;;;;;;;;;;11.63;100.00;98166.00;5043505;28;20046;-92
2023/05/15 02:38:05;;;;;;;10.85;3.83;;;;;;;11.50;100.00;98140.81;5044097;28;19983;-94
2023/05/15 02:40:35;;;;;;;7.15;3.60;;;;;;;11.56;100.00;98143.22;5043960;28;20037;-93
2023/05/15 02:43:01;;;;;;;6.43;4.07;;;;;;;11.41;100.00;98127.88;5038387;28;20041;-92
2023/05/15 02:45:28;;;;;;;7.35;3.50;;;;;;;11.46;100.00;98132.06;5053206;28;20098;-92
2023/05/15 02:47:55;;;;;;;9.18;3.83;;;;;;;11.40;100.00;98123.47;5067218;28;20510;-93
2023/05/15 02:50:22;;;;;;;8.68;4.00;;;;;;;11.31;100.00;98125.56;5065413;28;20064;-94
2023/05/15 02:52:48;;;;;;;7.85;4.03;;;;;;;11.25;100.00;98108.97;5068884;28;20087;-92
2023/05/15 02:55:14;;;;;;;9.30;4.20;;;;;;;11.19;100.00;98099.47;5071057;28;20043;-94
2023/05/15 02:57:40;;;;;;;6.00;3.70;;;;;;;11.19;100.00;98101.22;5069705;28;20043;-94
2023/05/15 03:00:10;;;;;;;7.40;3.80;;;;;;;11.41;100.00;98118.09;5068069;28;20498;-92
2023/05/15 03:02:36;;;;;;;9.13;3.85;;;;;;;11.33;100.00;98112.19;5066854;28;20077;-92
2023/05/15 03:05:02;;;;;;;9.80;3.85;;;;;;;11.16;100.00;98123.50;5065494;28;20044;-92
2023/05/15 03:07:30;;;;;;;7.40;3.70;;;;;;;10.98;100.00;98109.16;5066992;28;20067;-92
2023/05/15 03:09:56;;;;;;;7.80;4.07;;;;;;;10.84;100.00;98093.75;5064046;28;20090;-92
2023/05/15 03:12:21;;;;;;;7.90;3.80;;;;;;;10.92;100.00;98097.88;5067928;28;20044;-92
2023/05/15 03:14:47;;;;;;;6.32;3.40;;;;;;;10.88;100.00;98090.00;5062190;28;20048;-92
2023/05/15 03:17:13;;;;;;;8.88;4.10;;;;;;;10.93;100.00;98094.28;5062382;28;20428;-93
2023/05/15 03:19:39;;;;;;;9.10;3.80;;;;;;;10.92;100.00;98092.56;5067040;28;20036;-93
2023/05/15 03:22:06;;;;;;;6.25;3.92;;;;;;;10.94;100.00;98088.06;5067415;28;20401;-92
2023/05/15 03:24:33;;;;;;;9.63;3.95;;;;;;;11.00;100.00;98098.47;5068889;28;20135;-92
2023/05/15 03:26:59;;;;;;;8.45;4.00;;;;;;;10.91;100.00;98086.38;5066191;28;20045;-93
2023/05/15 03:29:25;;;;;;;8.43;4.13;;;;;;;10.95;100.00;98095.97;5064584;28;20082;-91
2023/05/15 03:31:51;;;;;;;8.38;4.10;;;;;;;10.92;100.00;98087.25;5067354;28;20036;-93
2023/05/15 03:34:16;;;;;;;6.20;3.53;;;;;;;10.74;100.00;98051.63;5070749;28;20048;-93
2023/05/15 03:36:42;;;;;;;9.38;3.70;;;;;;;11.01;100.00;98100.19;5064204;28;20064;-92
2023/05/15 03:39:08;;;;;;;6.13;3.50;;;;;;;10.86;100.00;98069.72;5062602;28;20132;-94
2023/05/15 03:41:35;;;;;;;9.00;4.18;;;;;;;10.94;100.00;98085.41;5065238;28;20040;-92
2023/05/15 03:44:01;;;;;;;8.35;4.07;;;;;;;10.96;100.00;98091.53;5065793;28;20123;-92
2023/05/15 03:46:27;;;;;;;7.75;4.03;;;;;;;11.00;100.00;98087.81;5050815;28;20493;-92
2023/05/15 03:48:54;;;;;;;8.27;4.70;;;;;;;10.92;100.00;98061.50;5050126;28;20502;-94
2023/05/15 03:51:23;;;;;;;8.63;4.30;;;;;;;10.93;100.00;98059.69;5043920;28;20156;-94
2023/05/15 03:53:49;;;;;;;7.45;3.83;;;;;;;10.83;100.00;98049.44;5049448;28;20040;-95
2023/05/15 03:56:15;;;;;;;10.57;4.10;;;;;;;10.82;100.00;98039.75;5053679;28;20056;-93
2023/05/15 03:58:42;;;;;;;10.40;3.90;;;;;;;11.01;100.00;98062.94;5052949;28;20044;-93
2023/05/15 04:01:08;;;;;;;8.18;4.03;;;;;;;10.91;100.00;98051.81;5051675;28;20132;-93
2023/05/15 04:03:34;;;;;;;6.90;3.63;;;;;;;10.87;100.00;98053.72;5050339;28;20132;-92
2023/05/15 04:06:00;;;;;;;8.88;4.18;;;;;;;10.64;100.00;98030.69;5049812;28;20524;-93
2023/05/15 04:08:26;;;;;;;7.13;4.15;;;;;;;10.75;100.00;98053.31;5052126;28;20037;-93
2023/05/15 04:10:52;;;;;;;7.28;3.60;;;;;;;10.65;100.00;98042.19;5051414;28;20041;-93
2023/05/15 04:13:18;;;;;;;8.13;3.47;;;;;;;10.77;100.00;98070.94;5052407;28;20048;-93
2023/05/15 04:15:45;;;;;;;7.50;3.88;;;;;;;10.77;100.00;98062.97;5051693;28;20502;-92
2023/05/15 04:18:11;;;;;;;7.90;3.60;;;;;;;10.94;100.00;98080.06;5046948;28;21448;-93
2023/05/15 04:20:37;;;;;;;10.02;3.47;;;;;;;10.93;100.00;98062.38;5052442;28;20128;-94
2023/05/15 04:23:04;;;;;;;5.75;3.10;;;;;;;10.93;100.00;98057.94;5051194;28;20037;-93
2023/05/15 04:25:31;;;;;;;7.03;3.53;;;;;;;10.91;100.00;98041.16;5049906;28;20094;-92
2023/05/15 04:27:57;;;;;;;6.13;3.22;;;;;;;10.95;100.00;98041.88;5053270;28;20033;-94
2023/05/15 04:30:22;;;;;;;6.05;3.30;;;;;;;11.06;100.00;98039.66;5048066;28;20090;-93
2023/05/15 04:32:51;;;;;;;5.38;3.35;;;;;;;11.03;100.00;98034.47;5052568;28;20075;-93
2023/05/15 04:35:17;;;;;;;7.33;3.57;;;;;;;11.04;100.00;98036.22;5051421;28;20094;-93
2023/05/15 04:37:44;;;;;;;6.72;3.53;;;;;;;11.15;100.00;98055.28;5049208;28;20290;-93
2023/05/15 04:40:13;;;;;;;6.88;3.33;;;;;;;11.37;100.00;98073.88;5049780;28;20044;-93
2023/05/15 04:42:39;;;;;;;8.30;3.55;;;;;;;11.43;100.00;98072.78;5050025;28;20053;-93
2023/05/15 04:45:06;;;;;;;6.15;3.28;;;;;;;11.44;100.00;98055.84;5049852;28;20542;-90
2023/05/15 04:47:32;;;;;;;9.43;3.80;;;;;;;11.51;100.00;98055.53;5043946;28;20443;-94
2023/05/15 04:50:00;;;;;;;5.13;3.40;;;;;;;11.49;100.00;98044.09;5043251;28;20048;-94
2023/05/15 04:52:26;;;;;;;5.47;3.17;;;;;;;11.58;100.00;98037.50;5047545;28;20041;-93
2023/05/15 04:54:54;;;;;;;6.93;3.85;;;;;;;11.68;100.00;98049.47;5042172;28;20040;-92
2023/05/15 04:57:20;;;;;;;6.50;3.53;;;;;;;11.71;100.00;98054.69;5041026;28;20065;-93
2023/05/15 04:59:46;;;;;;;6.60;3.50;;;;;;;11.70;100.00;98044.94;5044241;28;20376;-92
2023/05/15 05:02:12;;;;;;;5.93;3.30;;;;;;;11.80;100.00;98044.56;5045966;28;20053;-92
2023/05/15 05:04:41;;;;;;;5.90;3.70;;;;;;;12.00;100.00;98052.56;5043506;28;20060;-93
2023/05/15 05:07:08;;;;;;;8.45;5.00;;;;;;;12.16;100.00;98062.53;5046132;28;20071;-92
2023/05/15 05:09:34;;;;;;;7.03;4.50;;;;;;;12.15;100.00;98052.84;5046283;28;20045;-93
2023/05/15 05:12:01;;;;;;;8.57;4.85;;;;;;;12.16;100.00;98039.41;5047742;28;20041;-93
2023/05/15 05:14:26;;;;;;;10.73;4.50;;;;;;;12.16;100.00;98025.22;5047947;28;20380;-93
2023/05/15 05:16:52;;;;;;;8.10;4.20;;;;;;;12.26;100.00;98026.56;5046714;28;20103;-93
2023/05/15 05:19:18;;;;;;;8.00;3.60;;;;;;;12.40;100.00;98045.41;5050696;28;20088;-93
2023/05/15 05:21:44;;;;;;;11.05;3.70;;;;;;;12.38;100.00;98039.28;5044324;28;20072;-93
2023/05/15 05:24:11;;;;;;;6.20;3.60;;;;;;;12.24;100.00;98021.28;5048567;28;20068;-93
2023/05/15 05:26:37;;;;;;;6.00;3.72;;;;;;;12.35;100.00;98049.25;5046872;28;20151;-92
2023/05/15 05:29:03;;;;;;;6.05;3.42;;;;;;;12.83;100.00;98040.75;5051054;28;20526;-93
2023/05/15 05:31:29;;;;;;;7.00;4.13;;;;;;;13.26;100.00;98029.78;5051036;28;20502;-93
2023/05/15 05:33:55;;;;;;;8.68;3.88;;;;;;;13.85;100.00;98030.38;5043705;28;20429;-93
2023/05/15 05:36:21;;;;;;;7.65;3.75;;;;;;;14.27;100.00;98016.56;5052775;28;20041;-93
2023/05/15 05:38:46;;;;;;;5.45;3.38;;;;;;;13.90;100.00;98014.97;5044347;28;20075;-92
2023/05/15 05:41:14;;;;;;;6.30;4.07;;;;;;;14.32;100.00;98033.22;5039014;28;20487;-92
2023/05/15 05:43:40;;;;;;;6.40;3.42;;;;;;;14.34;100.00;98022.44;5047483;28;20045;-92
2023/05/15 05:46:05;;;;;;;9.13;3.70;;;;;;;14.66;100.00;98022.50;5035775;28;20568;-93
2023/05/15 05:48:31;;;;;;;9.00;4.05;;;;;;;15.04;100.00;98028.38;5042920;28;20041;-94
2023/05/15 05:50:57;;;;;;;6.22;3.92;;;;;;;14.95;100.00;98011.00;5039126;28;20484;-93
2023/05/15 05:53:23;;;;;;;9.18;4.07;;;;;;;14.22;100.00;97999.03;5039977;28;20168;-93
2023/05/15 05:55:49;;;;;;;7.88;4.13;;;;;;;14.60;100.00;98002.31;5048738;28;20502;-92
2023/05/15 05:58:17;;;;;;;6.28;4.13;;;;;;;15.04;100.00;98020.34;5035014;28;20495;-94
2023/05/15 06:00:43;;;;;;;8.55;4.22;;;;;;;15.14;100.00;98004.63;5038156;28;20040;-93
2023/05/15 06:03:09;;;;;;;8.63;4.57;;;;;;;15.38;98.83;98016.56;5044336;28;20064;-93
2023/05/15 06:05:35;;;;;;;6.72;4.07;;;;;;;15.50;98.11;98000.72;5042150;28;20132;-93
2023/05/15 06:08:02;;;;;;;6.68;4.20;;;;;;;15.63;99.11;98014.25;5045750;28;20451;-93
2023/05/15 06:10:29;;;;;;;12.23;5.18;;;;;;;15.27;99.49;98002.94;5046045;28;20128;-93
2023/05/15 06:12:55;;;;;;;9.02;4.90;;;;;;;15.23;97.58;97979.13;5042839;28;20041;-93
2023/05/15 06:15:22;;;;;;;7.18;4.47;;;;;;;15.09;97.90;97980.75;5035467;28;20034;-93
2023/05/15 06:17:48;;;;;;;8.55;4.30;;;;;;;15.15;97.21;97992.94;5038792;28;20045;-93
2023/05/15 06:20:15;;;;;;;6.35;4.28;;;;;;;15.15;98.86;98000.97;5040557;28;20033;-94
2023/05/15 06:22:40;;;;;;;7.07;4.22;;;;;;;15.22;97.50;97983.59;5038308;28;20048;-93
2023/05/15 06:25:12;;;;;;;6.45;4.60;;;;;;;14.83;98.46;97968.88;5041005;28;20041;-93
2023/05/15 06:27:38;;;;;;;16.55;5.40;;;;;;;15.15;96.21;97985.75;5035566;28;20044;-94
2023/05/15 06:30:06;;;;;;;9.60;4.82;;;;;;;14.81;98.41;97960.06;5039617;28;20033;-92
2023/05/15 06:32:33;;;;;;;6.35;4.40;;;;;;;15.09;95.95;97953.13;5040229;28;20033;-93
2023/05/15 06:34:59;;;;;;;9.63;4.85;;;;;;;15.32;94.98;97976.75;5038656;28;20046;-93
2023/05/15 06:37:25;;;;;;;6.93;4.18;;;;;;;15.47;96.52;97976.81;5041367;28;20448;-93
2023/05/15 06:39:51;;;;;;;7.40;4.70;;;;;;;14.88;97.33;97979.34;5037262;28;20033;-93
2023/05/15 06:42:17;;;;;;;7.45;4.40;;;;;;;14.70;100.00;97979.44;5038236;28;20061;-93
2023/05/15 06:44:42;;;;;;;8.68;4.43;;;;;;;15.19;98.43;97979.28;5040160;28;20097;-90
2023/05/15 06:47:08;;;;;;;9.82;4.70;;;;;;;15.25;97.33;97977.22;5041607;28;20045;-94
2023/05/15 06:49:36;;;;;;;12.20;4.53;;;;;;;15.11;95.86;97986.88;5045560;28;20044;-93
2023/05/15 06:52:01;;;;;;;6.72;3.85;;;;;;;15.56;93.38;97990.50;5042101;28;20044;-92
2023/05/15 06:54:27;;;;;;;6.97;4.28;;;;;;;15.38;94.17;97975.53;5042271;28;20456;-93
2023/05/15 06:56:53;;;;;;;7.75;4.85;;;;;;;15.60;90.88;97972.44;5045240;28;20041;-93
2023/05/15 06:59:19;;;;;;;6.63;3.58;;;;;;;15.50;92.39;97976.59;5041192;28;20052;-93
2023/05/15 07:01:45;;;;;;;7.95;4.20;;;;;;;15.90;89.71;97993.00;5041394;28;20037;-93
2023/05/15 07:04:11;;;;;;;7.25;3.45;;;;;;;15.22;92.45;97972.88;5040976;28;20068;-90
2023/05/15 07:06:38;;;;;;;7.70;3.30;;;;;;;15.67;88.73;97941.59;5039353;28;20396;-92
2023/05/15 07:09:04;;;;;;;7.55;3.53;;;;;;;16.28;86.00;97976.34;5039961;28;20131;-91
2023/05/15 07:11:32;;;;;;;7.90;3.30;;;;;;;16.41;85.25;97985.34;5037778;28;20137;-92
2023/05/15 07:13:58;;;;;;;5.95;3.13;;;;;;;16.16;85.48;97986.03;5038512;28;20049;-91
2023/05/15 07:16:24;;;;;;;6.40;3.03;;;;;;;16.39;86.77;97990.81;5039608;28;20135;-93
2023/05/15 07:18:49;;;;;;;6.07;3.00;;;;;;;16.64;81.32;97984.72;5039554;28;20045;-93
2023/05/15 07:21:15;;;;;;;6.35;3.40;;;;;;;16.79;82.15;97982.03;5038403;28;20045;-92
2023/05/15 07:23:43;;;;;;;6.30;3.08;;;;;;;16.93;81.21;97997.25;5042172;28;20038;-92
2023/05/15 07:26:08;;;;;;;7.13;3.20;;;;;;;16.99;81.30;97988.81;5041509;28;20045;-92
2023/05/15 07:28:34;;;;;;;5.00;3.10;;;;;;;17.22;80.52;97988.16;5042656;28;20049;-92
2023/05/15 07:31:00;;;;;;;5.55;3.20;;;;;;;16.96;80.28;97960.34;5042312;28;20041;-93
2023/05/15 07:33:26;;;;;;;5.05;3.20;;;;;;;17.08;80.09;97987.34;5044689;28;20395;-92
2023/05/15 07:35:52;;;;;;;6.60;2.88;;;;;;;17.01;79.02;97976.16;5038253;28;20040;-92
2023/05/15 07:38:18;;;;;;;7.00;2.92;;;;;;;15.68;83.14;97945.16;5037320;28;20043;-90
2023/05/15 07:40:45;;;;;;;5.00;2.97;;;;;;;15.94;84.27;97979.31;5039800;28;20041;-93
2023/05/15 07:43:11;;;;;;;6.82;3.38;;;;;;;16.43;82.93;97980.72;5038572;28;20037;-94
2023/05/15 07:45:37;;;;;;;4.32;2.85;;;;;;;16.67;83.61;97986.34;5036634;28;20509;-93
2023/05/15 07:48:13;;;;;;;5.15;2.70;;;;;;;16.54;79.48;97966.63;5039111;28;20049;-91
2023/05/15 07:50:38;;;;;;;5.82;2.88;;;;;;;16.38;80.37;97947.97;5033457;28;20037;-92
2023/05/15 07:53:04;;;;;;;5.20;3.20;;;;;;;16.54;80.97;97958.59;5041100;28;20034;-91
2023/05/15 07:55:30;;;;;;;6.10;3.05;;;;;;;16.52;79.73;97964.03;5041626;28;20086;-93
2023/05/15 07:57:58;;;;;;;5.55;3.30;;;;;;;16.69;79.54;97973.69;5043979;28;20033;-94
2023/05/15 08:00:23;;;;;;;4.25;2.80;;;;;;;16.71;78.91;97952.97;5040199;28;20068;-93
2023/05/15 08:02:49;;;;;;;6.55;3.20;;;;;;;16.79;79.28;97949.81;5041179;28;20465;-92
2023/05/15 08:05:15;;;;;;;5.18;3.08;;;;;;;16.93;79.33;97963.22;5040551;28;20037;-93
2023/05/15 08:07:41;;;;;;;5.80;2.95;;;;;;;16.98;79.58;97966.47;5038344;28;20044;-94
2023/05/15 08:10:08;;;;;;;8.40;3.33;;;;;;;16.79;82.15;97937.25;5039809;28;20399;-93
2023/05/15 08:12:34;;;;;;;6.70;3.05;;;;;;;16.49;82.56;97905.22;5042079;28;20045;-93
2023/05/15 08:15:01;;;;;;;6.63;3.20;;;;;;;16.70;82.43;97924.44;5040277;28;20041;-91
2023/05/15 08:17:27;;;;;;;4.78;2.55;;;;;;;16.84;79.62;97902.91;5036019;28;20033;-95
2023/05/15 08:19:54;;;;;;;4.70;2.78;;;;;;;16.91;77.20;97919.47;5044437;28;20091;-92
2023/05/15 08:22:20;;;;;;;4.32;2.67;;;;;;;17.19;79.04;97917.63;5037187;28;20057;-93
2023/05/15 08:24:46;;;;;;;5.75;2.90;;;;;;;17.27;75.28;97890.25;5043635;28;20038;-93
2023/05/15 08:27:12;;;;;;;4.55;2.47;;;;;;;16.98;78.98;97876.97;5045769;28;20106;-92
2023/05/15 08:29:38;;;;;;;4.22;2.78;;;;;;;17.43;78.44;97872.09;5042986;28;20099;-92
2023/05/15 08:32:07;;;;;;;5.18;2.85;;;;;;;17.36;73.29;97863.59;5040936;28;20073;-93
2023/05/15 08:34:33;;;;;;;6.95;3.00;;;;;;;17.83;72.70;97848.69;5039006;28;20041;-94
2023/05/15 08:36:59;;;;;;;6.28;2.90;;;;;;;17.68;72.23;97848.91;5041286;28;20960;-92
2023/05/15 08:39:25;;;;;;;4.40;2.60;;;;;;;17.66;76.40;97830.16;5045095;28;20040;-93
2023/05/15 08:41:56;;;;;;;7.75;2.80;;;;;;;18.40;77.97;97844.56;5034161;28;20041;-94
2023/05/15 08:44:23;;;;;;;5.43;2.90;;;;;;;17.58;76.28;97824.47;5039961;28;20037;-94
2023/05/15 08:46:50;;;;;;;5.90;2.85;;;;;;;17.37;76.58;97808.00;5064933;28;20047;-93
2023/05/15 08:49:25;;;;;;;5.13;2.70;;;;;;;17.20;77.72;97839.63;5069098;28;20028;-93
2023/05/15 08:51:52;;;;;;;4.10;2.70;;;;;;;17.69;76.51;97859.50;5061818;28;20559;-91
2023/05/15 08:54:18;;;;;;;3.97;2.40;;;;;;;17.97;72.48;97879.09;5067815;28;20040;-92
2023/05/15 08:56:46;;;;;;;5.80;2.70;;;;;;;18.50;72.46;97895.91;5064823;28;20493;-92
2023/05/15 08:59:12;;;;;;;6.13;2.50;;;;;;;18.74;69.69;97903.16;5059883;28;20409;-93
2023/05/15 09:01:37;;;;;;;5.05;2.40;;;;;;;19.07;68.17;97895.25;5063441;28;20139;-93
2023/05/15 09:04:03;;;;;;;4.10;2.40;;;;;;;18.97;66.58;97877.19;5067839;28;20448;-93
2023/05/15 09:06:32;;;;;;;3.67;2.63;;;;;;;17.68;69.78;97890.06;5068526;28;20044;-92
2023/05/15 09:08:59;;;;;;;;;;;;;;;18.18;69.27;97901.78;5070332;28;20097;-95
2023/05/15 09:11:26;;;;;;;9.25;2.90;;;;;;;17.91;68.50;97871.47;5063365;28;19926;-93
2023/05/15 09:13:52;;;;;;;3.90;2.47;;;;;;;18.36;67.17;97880.75;5069505;28;20068;-93
2023/05/15 09:16:20;;;;;;;4.70;2.30;;;;;;;18.47;67.81;97835.06;5063172;28;20036;-95
2023/05/15 09:18:48;;;;;;;4.70;2.42;;;;;;;18.90;67.91;97838.25;5059978;28;20040;-94
2023/05/15 09:21:24;;;;;;;4.40;2.30;;;;;;;18.99;67.47;97843.78;5063848;28;20074;-92
2023/05/15 09:23:52;;;;;;;5.75;2.63;;;;;;;18.83;69.60;97845.94;5056746;28;20068;-93
2023/05/15 09:26:18;;;;;;;3.92;2.40;;;;;;;19.32;64.02;97855.63;5067622;28;20114;-93
2023/05/15 09:28:44;;;;;;;5.32;2.47;;;;;;;19.16;64.01;97837.09;5070112;28;20044;-94
2023/05/15 09:31:10;;;;;;;4.30;2.35;;;;;;;19.62;64.88;97825.41;5066387;28;20144;-93
2023/05/15 09:33:37;;;;;;;4.00;2.55;;;;;;;19.00;62.49;97828.50;5066894;28;20139;-95
2023/05/15 09:36:05;;;;;;;5.63;2.40;;;;;;;19.10;64.08;97821.41;5064429;28;20086;-93
2023/05/15 09:38:32;;;;;;;4.93;2.73;;;;;;;19.54;59.65;97800.03;5065490;28;20122;-95
2023/05/15 09:41:04;;;;;;;3.83;2.40;;;;;;;19.79;62.25;97799.81;5056616;28;20037;-93
2023/05/15 09:43:33;;;;;;;4.15;2.60;;;;;;;19.65;62.74;97821.63;5063059;28;20044;-94
2023/05/15 09:45:59;;;;;;;7.20;2.40;;;;;;;18.95;62.95;97814.50;5065842;28;20166;-94
2023/05/15 09:48:25;;;;;;;5.50;2.35;;;;;;;19.69;60.94;97797.03;5064199;28;20043;-94
2023/05/15 09:50:51;;;;;;;5.25;3.35;;;;;;;20.05;59.62;97784.22;5072777;28;20066;-94
2023/05/15 09:53:17;;;;;;;4.78;2.40;;;;;;;19.81;58.12;97784.38;5069102;28;20477;-93
2023/05/15 09:55:43;;;;;;;7.25;2.40;;;;;;;19.56;57.33;97803.47;5062386;28;20051;-94
2023/05/15 09:58:12;;;;;;;5.20;2.17;;;;;;;19.76;59.26;97778.50;5063508;28;20064;-94
2023/05/15 10:00:39;;;;;;;4.15;1.98;;;;;;;19.90;54.40;97788.16;5073091;28;20135;-94
2023/05/15 10:03:06;;;;;;;4.13;2.50;;;;;;;19.75;54.56;97760.59;5062046;28;20102;-95
2023/05/15 10:05:33;;;;;;;4.45;2.47;;;;;;;19.97;53.45;97748.91;5064890;28;20056;-93
2023/05/15 10:07:59;;;;;;;4.05;2.10;;;;;;;19.51;53.03;97766.06;5062334;28;20051;-93
2023/05/15 10:10:27;;;;;;;2.95;1.85;;;;;;;19.91;55.88;97789.91;5065369;28;20452;-94
2023/05/15 10:12:54;;;;;;;4.20;2.20;;;;;;;20.55;53.31;97774.78;5064400;28;20044;-94
2023/05/15 10:15:22;;;;;;;5.82;2.20;;;;;;;20.35;52.21;97744.03;5069145;28;20072;-93
2023/05/15 10:17:49;;;;;;;5.38;2.65;;;;;;;20.40;51.72;97749.91;5065064;28;20055;-93
2023/05/15 10:20:17;;;;;;;4.05;2.33;;;;;;;20.45;52.51;97756.66;5058331;28;20405;-96
2023/05/15 10:22:46;;;;;;;5.75;2.45;;;;;;;20.57;52.09;97765.59;5065621;28;20135;-93
2023/05/15 10:25:17;;;;;;;3.95;2.33;;;;;;;19.40;56.12;97726.50;5062088;28;20044;-93
2023/05/15 10:27:45;;;;;;;5.45;2.72;;;;;;;20.19;54.00;97748.03;5061206;28;20044;-93
2023/05/15 10:30:15;;;;;;;4.60;2.20;;;;;;;20.65;50.49;97744.19;5061996;28;20511;-94
2023/05/15 10:32:43;;;;;;;6.28;2.90;;;;;;;20.85;51.37;97742.50;5063673;28;20405;-95
2023/05/15 10:35:10;;;;;;;3.97;2.30;;;;;;;21.07;51.98;97721.72;5069587;28;20039;-94
2023/05/15 10:37:38;;;;;;;5.65;2.90;;;;;;;21.46;50.75;97740.91;5067689;28;20050;-93
2023/05/15 10:40:08;;;;;;;8.55;2.53;;;;;;;20.75;51.27;97744.25;5064838;28;20036;-93
2023/05/15 10:42:35;;;;;;;5.20;2.45;;;;;;;19.65;52.92;97729.94;5070452;28;20389;-94
2023/05/15 10:45:01;;;;;;;5.28;2.55;;;;;;;19.68;54.42;97735.06;5066147;28;20060;-92
2023/05/15 10:47:28;;;;;;;4.22;2.78;;;;;;;20.56;52.32;97755.75;5068329;28;20040;-93
2023/05/15 10:49:56;;;;;;;8.35;2.60;;;;;;;20.70;51.27;97746.50;5063244;28;20040;-92
2023/05/15 10:52:22;;;;;;;5.32;2.60;;;;;;;20.61;50.53;97729.22;5072820;28;20040;-93
2023/05/15 10:54:48;;;;;;;4.95;2.40;;;;;;;20.07;53.33;97739.06;5066004;28;20086;-93
2023/05/15 10:57:14;;;;;;;4.63;2.50;;;;;;;20.24;52.43;97740.38;5065396;28;20059;-93
2023/05/15 10:59:40;;;;;;;6.07;2.50;;;;;;;20.09;52.96;97725.47;5069151;28;20379;-93
2023/05/15 11:02:20;;;;;;;5.57;2.67;;;;;;;20.30;53.32;97739.03;5069056;28;20039;-94
2023/05/15 11:04:46;;;;;;;6.25;3.25;;;;;;;;;;5066966;28;20074;-94
2023/05/15 11:07:14;;;;;;;6.85;3.10;;;;;;;20.69;53.40;97734.84;5070738;28;20032;-93
2023/05/15 11:09:40;;;;;;;7.85;2.80;;;;;;;20.89;51.43;97759.31;5067653;28;20044;-93
2023/05/15 11:12:08;;;;;;;3.88;2.50;;;;;;;20.41;52.30;97725.47;5073276;28;20040;-94
2023/05/15 11:14:36;;;;;;;6.10;2.60;;;;;;;20.05;52.49;97740.19;5070272;28;20128;-93
2023/05/15 11:17:03;;;;;;;8.18;2.83;;;;;;;20.09;52.95;97731.72;5066938;28;20037;-92
2023/05/15 11:19:37;;;;;;;3.90;2.45;;;;;;;19.84;53.87;97723.91;5069786;28;20048;-92
2023/05/15 11:22:18;;;;;;;4.50;2.42;;;;;;;20.38;52.57;97749.19;5074590;28;20036;-93
2023/05/15 11:24:50;;;;;;;6.55;2.60;;;;;;;19.68;52.50;97735.06;5049871;28;20032;-93
2023/05/15 11:27:18;;;;;;;6.13;3.33;;;;;;;19.73;52.10;97729.31;5070426;28;20072;-94
2023/05/15 11:30:05;;;;;;;4.97;2.40;;;;;;;20.02;52.50;97745.84;5063647;28;20040;-93